Terminal Aerodrome Forecast
Issued by NWS

Home | Current Version | Previous Version | Graphics & Text | Print | Product List | Glossary On
Versions: 1 2 3 4 5 6 7 8 9 10 11 12 13 14 15 16 17
000
FTUS43 KICT 222000 AAA
TAFSLN
TAF AMD
KSLN 222023Z 2220/2318 13014KT P6SM BKN120
     FM222200 16017G25KT P6SM BKN100
     FM230900 17025G35KT P6SM BKN100=

USA.gov is the U.S. government's official web portal to all federal, state and local government web resources and services.